WetterOnline ( https://www.wetteronline.de )

Wetter aktuell Wetzlar

Aktuelles Wetter: Gießen (195m)

6-stündlich | Neueste Meldungen
Ortszeit Temperatur Wetter
So, 01.08. 14:00 22.2° C wolkenlos
So, 01.08. 8:00 14.3° C bewölkt
So, 01.08. 2:00 12.1° C bedeckt
Sa, 31.07. 20:00 19.5° C leicht bewölkt
Sa, 31.07. 14:00 20.8° C bewölkt
Sa, 31.07. 8:00 15.9° C fast wolkenlos
Sa, 31.07. 2:00 15.7° C wolkenlos
Fr, 30.07. 20:00 22.8° C leicht bewölkt
Ortszeit Temperatur Wetter
So, 01.08. 16:00 23.1° C leicht bewölkt
So, 01.08. 15:50 23.1° C leicht bewölkt
So, 01.08. 15:40 22.4° C wolkig
So, 01.08. 15:30 22.1° C leicht bewölkt
So, 01.08. 15:20 22.1° C leicht bewölkt
So, 01.08. 15:10 23.0° C leicht bewölkt
So, 01.08. 15:00 22.3° C wolkig
So, 01.08. 14:30 22.3° C fast wolkenlos
So, 01.08. 14:00 22.2° C wolkenlos
So, 01.08. 13:30 21.3° C leicht bewölkt
So, 01.08. 13:00 21.4° C leicht bewölkt
Ortszeit Relative Feuchte Sichtweite
So, 01.08. 14:00 50% -
So, 01.08. 8:00 89% 45 km
So, 01.08. 2:00 94% 40 km
Sa, 31.07. 20:00 57% 60 km
Sa, 31.07. 14:00 52% 45 km
Sa, 31.07. 8:00 68% 60 km
Sa, 31.07. 2:00 68% 45 km
Fr, 30.07. 20:00 55% 45 km
Ortszeit Relative Feuchte Sichtweite
So, 01.08. 16:00 46% 60 km
So, 01.08. 15:50 46% -
So, 01.08. 15:40 51% -
So, 01.08. 15:30 47% 65 km
So, 01.08. 15:20 47% -
So, 01.08. 15:10 46% -
So, 01.08. 15:00 48% >70 km
So, 01.08. 14:30 45% 45 km
So, 01.08. 14:00 50% 65 km
So, 01.08. 13:30 55% 50 km
So, 01.08. 13:00 57% 45 km
Ortszeit Niederschlagsmenge Niederschlagsart
So, 01.08. 14:00 0.0 l/m2 in 6 Std. -
So, 01.08. 8:00 0.0 l/m2 in 12 Std. -
So, 01.08. 2:00 0.0 l/m2 in 6 Std. -
Sa, 31.07. 20:00 0.1 l/m2 in 12 Std. -
Sa, 31.07. 14:00 0.1 l/m2 in 6 Std. Sprühregen
Sa, 31.07. 8:00 0.0 l/m2 in 12 Std. -
Sa, 31.07. 2:00 0.0 l/m2 in 6 Std. -
Fr, 30.07. 20:00 0.0 l/m2 in 12 Std. -
Ortszeit Niederschlagsmenge Niederschlagsart
So, 01.08. 16:00 0.0 l/m2 in 1 Std. -
So, 01.08. 15:50 keine Meldung -
So, 01.08. 15:40 keine Meldung -
So, 01.08. 15:30 0.0 l/m2 in 1 Std. -
So, 01.08. 15:20 keine Meldung -
So, 01.08. 15:10 keine Meldung -
So, 01.08. 15:00 0.0 l/m2 in 1 Std. -
So, 01.08. 14:30 0.0 l/m2 in 1 Std. -
So, 01.08. 14:00 0.0 l/m2 in 1 Std. -
So, 01.08. 13:30 0.0 l/m2 in 1 Std. -
So, 01.08. 13:00 0.0 l/m2 in 1 Std. -
Ortszeit Stärke Spitze Richtung
km/h Bft. km/h Grad Sektor
So, 01.08. 14:00 22 4 36 220° SW
So, 01.08. 8:00 7 2 11 230° SW
So, 01.08. 2:00 7 2 22 270° W
Sa, 31.07. 20:00 18 3 50 250° W
Sa, 31.07. 14:00 30 5 46 240° SW
Sa, 31.07. 8:00 25 4 40 210° SW
Sa, 31.07. 2:00 11 2 40 200° S
Fr, 30.07. 20:00 11 2 36 220° SW
Ortszeit Stärke Spitze Richtung
km/h Bft. km/h Grad Sektor
So, 01.08. 16:00 22 4 32 250° W
So, 01.08. 15:50 22 4 - 250° W
So, 01.08. 15:40 22 4 - 240° SW
So, 01.08. 15:30 22 4 32 250° W
So, 01.08. 15:20 22 4 - 250° W
So, 01.08. 15:10 22 4 - 240° SW
So, 01.08. 15:00 24 4 39 230° SW
So, 01.08. 14:30 22 4 36 230° SW
So, 01.08. 14:00 22 4 36 220° SW
So, 01.08. 13:30 19 3 37 200° S
So, 01.08. 13:00 20 4 30 210° SW
Ortszeit Untergrenze Bedeckung Gattung
total tief tief mittel hoch
So, 01.08. 14:00 - 0/8 0/8 - - -
So, 01.08. 8:00 5700 m 7/8 7/8 - - -
So, 01.08. 2:00 4500 m 8/8 8/8 - - -
Sa, 31.07. 20:00 1500 m 3/8 3/8 - - -
Sa, 31.07. 14:00 1500 m 7/8 7/8 - - -
Sa, 31.07. 8:00 7800 m 1/8 0/8 - - -
Sa, 31.07. 2:00 - 0/8 0/8 - - -
Fr, 30.07. 20:00 1800 m 2/8 5/8 - - -
Ortszeit Bedeckungsgrad in Achtel und Wolkenuntergrenze
So, 01.08. 16:00 1(1410m)
So, 01.08. 15:50 1(1410m) 2(1800m)
So, 01.08. 15:40 3(1440m) 6(2100m)
So, 01.08. 15:30 4(1410m)
So, 01.08. 15:20 4(1410m)
So, 01.08. 15:10 2(1440m)
So, 01.08. 15:00 4(1410m) 5(1500m) 5(2100m)
So, 01.08. 14:30 1(1380m) 2(1500m) 2(2100m)
So, 01.08. 14:00 keine Wolken
So, 01.08. 13:30 1(1020m) 3(1500m)
So, 01.08. 13:00 2(990m) 4(3000m) 5(3000m)
Ortszeit Luftdruck NN (hPa) Tendenz (hPa in 3 Std.)
So, 01.08. 14:00 1008 - 0,8
So, 01.08. 8:00 1010 0,0
So, 01.08. 2:00 1010 - 0,2
Sa, 31.07. 20:00 1010 0,0
Sa, 31.07. 14:00 1009 + 0,3
Sa, 31.07. 8:00 1009 0,0
Sa, 31.07. 2:00 1009 + 1,2
Fr, 30.07. 20:00 1006 - 0,5
Ortszeit Luftdruck NN (hPa) Tendenz (hPa in 3 Std.)
So, 01.08. 16:00 1008 - 0,7
So, 01.08. 15:50 1008 keine Meldung
So, 01.08. 15:40 1008 keine Meldung
So, 01.08. 15:30 1008 - 1,1
So, 01.08. 15:20 1008 keine Meldung
So, 01.08. 15:10 1008 keine Meldung
So, 01.08. 15:00 1008 - 1,1
So, 01.08. 14:30 1008 - 1,0
So, 01.08. 14:00 1008 - 0,8
So, 01.08. 13:30 1009 - 0,5
So, 01.08. 13:00 1009 - 0,4
Ortszeit Schneehöhe (cm)
So, 01.08. 14:00 -
So, 01.08. 8:00 -
So, 01.08. 2:00 -
Sa, 31.07. 20:00 -
Sa, 31.07. 14:00 -
Sa, 31.07. 8:00 -
Sa, 31.07. 2:00 -
Fr, 30.07. 20:00 -
Ortszeit Schneehöhe (cm)
So, 01.08. 16:00 -
So, 01.08. 15:50 -
So, 01.08. 15:40 -
So, 01.08. 15:30 -
So, 01.08. 15:20 -
So, 01.08. 15:10 -
So, 01.08. 15:00 -
So, 01.08. 14:30 -
So, 01.08. 14:00 -
So, 01.08. 13:30 -
So, 01.08. 13:00 -
Link zu dieser Seite / Seite empfehlen

Das Wetter in ...